createdAt,value
2023-03-02T00:01:44.606Z,4.37
2023-03-02T00:04:13.845Z,3.23
2023-03-02T00:06:41.897Z,3.93
2023-03-02T00:09:16.108Z,3.70
2023-03-02T00:11:45.596Z,4.03
2023-03-02T00:14:13.666Z,4.37
2023-03-02T00:16:41.800Z,3.60
2023-03-02T00:19:09.818Z,3.20
2023-03-02T00:21:37.841Z,3.90
2023-03-02T00:24:06.735Z,3.33
2023-03-02T00:26:36.269Z,3.20
2023-03-02T00:29:04.439Z,3.57
2023-03-02T00:31:32.499Z,3.30
2023-03-02T00:34:00.649Z,4.70
2023-03-02T00:36:28.729Z,3.70
2023-03-02T00:38:57.457Z,4.13
2023-03-02T00:41:25.492Z,3.43
2023-03-02T00:43:54.888Z,4.57
2023-03-02T00:46:24.236Z,4.33
2023-03-02T00:48:56.718Z,4.50
2023-03-02T00:51:25.134Z,3.37
2023-03-02T00:53:53.136Z,4.33
2023-03-02T00:56:21.210Z,4.17
2023-03-02T00:58:49.237Z,4.27
2023-03-02T01:01:18.890Z,4.10
2023-03-02T01:03:47.038Z,2.50
2023-03-02T01:06:16.013Z,3.00
2023-03-02T01:08:44.281Z,5.10
2023-03-02T01:11:16.072Z,4.00
2023-03-02T01:13:44.159Z,2.60
2023-03-02T01:16:12.706Z,3.70
2023-03-02T01:18:42.119Z,3.40
2023-03-02T01:21:11.841Z,3.70
2023-03-02T01:23:39.884Z,3.90
2023-03-02T01:26:08.049Z,3.27
2023-03-02T01:28:38.769Z,3.33
2023-03-02T01:31:06.861Z,3.43
2023-03-02T01:33:34.960Z,3.07
2023-03-02T01:36:04.472Z,4.93
2023-03-02T01:38:32.599Z,4.00
2023-03-02T01:41:02.780Z,3.00
2023-03-02T01:43:30.776Z,3.50
2023-03-02T01:45:59.512Z,3.20
2023-03-02T01:48:29.260Z,3.50
2023-03-02T01:50:57.304Z,3.03
2023-03-02T01:53:28.554Z,2.90
2023-03-02T01:55:56.811Z,3.03
2023-03-02T01:58:24.812Z,3.77
2023-03-02T02:00:52.947Z,3.40
2023-03-02T02:03:22.932Z,4.03
2023-03-02T02:05:57.089Z,3.20
2023-03-02T02:08:25.345Z,3.20
2023-03-02T02:10:54.914Z,5.07
2023-03-02T02:13:22.935Z,4.00
2023-03-02T02:15:50.976Z,2.87
2023-03-02T02:18:18.985Z,3.33
2023-03-02T02:20:47.209Z,3.87
2023-03-02T02:23:20.720Z,4.37
2023-03-02T02:26:03.177Z,5.73
2023-03-02T02:28:33.014Z,4.20
2023-03-02T02:31:07.010Z,3.50
2023-03-02T02:33:35.014Z,3.50
2023-03-02T02:36:04.717Z,3.90
2023-03-02T02:38:32.764Z,3.60
2023-03-02T02:41:03.514Z,4.43
2023-03-02T02:43:31.993Z,2.80
2023-03-02T02:46:00.331Z,4.47
2023-03-02T02:48:31.172Z,3.00
2023-03-02T02:51:01.392Z,6.10
2023-03-02T02:53:31.540Z,4.33
2023-03-02T02:56:00.935Z,5.30
2023-03-02T02:58:32.351Z,2.77
2023-03-02T03:01:02.983Z,3.20
2023-03-02T03:03:32.430Z,4.70
2023-03-02T03:06:01.821Z,3.30
2023-03-02T03:08:58.329Z,3.20
2023-03-02T03:11:28.959Z,4.07
2023-03-02T03:14:08.687Z,4.23
2023-03-02T03:16:37.368Z,3.60
2023-03-02T03:19:09.510Z,5.10
2023-03-02T03:21:37.540Z,3.77
2023-03-02T03:24:06.237Z,4.43
2023-03-02T03:26:35.700Z,3.70
2023-03-02T03:29:03.799Z,3.50
2023-03-02T03:31:31.840Z,3.03
2023-03-02T03:34:00.608Z,11.07
2023-03-02T03:36:28.963Z,3.27
2023-03-02T03:38:57.079Z,3.77
2023-03-02T03:41:25.264Z,4.60
2023-03-02T03:43:54.691Z,3.03
2023-03-02T03:46:22.765Z,4.13
2023-03-02T03:48:50.851Z,3.40
2023-03-02T03:51:18.937Z,5.97
2023-03-02T03:53:47.012Z,3.60
2023-03-02T03:56:15.100Z,3.50
2023-03-02T03:58:43.143Z,3.27
2023-03-02T04:01:12.677Z,3.93
2023-03-02T04:03:40.751Z,3.87
2023-03-02T04:06:19.048Z,4.10
2023-03-02T04:08:47.070Z,3.20
2023-03-02T04:11:15.085Z,3.30
2023-03-02T04:13:43.094Z,5.93
2023-03-02T04:16:16.514Z,3.53
2023-03-02T04:18:44.564Z,3.83
2023-03-02T04:21:12.586Z,3.30
2023-03-02T04:23:40.684Z,3.30
2023-03-02T04:26:08.707Z,3.80
2023-03-02T04:28:36.754Z,3.87
2023-03-02T04:31:04.969Z,4.53
2023-03-02T04:33:34.630Z,3.23
2023-03-02T04:36:02.976Z,3.23
2023-03-02T04:38:31.022Z,3.37
2023-03-02T04:40:59.127Z,3.93
2023-03-02T04:43:27.208Z,3.00
2023-03-02T04:45:55.281Z,3.80
2023-03-02T04:48:23.398Z,3.13
2023-03-02T04:50:52.829Z,3.20
2023-03-02T04:53:20.857Z,3.23
2023-03-02T04:55:49.275Z,3.53
2023-03-02T04:58:17.315Z,4.90
2023-03-02T05:00:45.403Z,3.40
2023-03-02T05:03:13.425Z,3.03
2023-03-02T05:05:41.493Z,4.10
2023-03-02T05:08:10.943Z,3.00
2023-03-02T05:10:39.008Z,4.23
2023-03-02T05:13:07.359Z,3.20
2023-03-02T05:15:36.141Z,3.60
2023-03-02T05:18:04.451Z,3.33
2023-03-02T05:20:32.448Z,3.87
2023-03-02T05:23:01.686Z,4.03
2023-03-02T05:25:32.214Z,4.20
2023-03-02T05:28:00.235Z,4.43
2023-03-02T05:30:28.330Z,4.10
2023-03-02T05:32:56.394Z,3.40
2023-03-02T05:35:24.611Z,3.10
2023-03-02T05:37:52.691Z,3.00
2023-03-02T05:40:21.545Z,3.40
2023-03-02T05:42:50.978Z,3.10
2023-03-02T05:45:20.543Z,3.13
2023-03-02T05:47:48.574Z,4.27
2023-03-02T05:50:16.727Z,5.53
2023-03-02T05:52:45.480Z,4.67
2023-03-02T05:55:13.595Z,3.53
2023-03-02T05:57:45.160Z,3.50
2023-03-02T06:00:15.622Z,3.87
2023-03-02T06:02:43.727Z,3.67
2023-03-02T06:05:13.841Z,3.47
2023-03-02T06:07:41.859Z,5.00
2023-03-02T06:10:11.003Z,3.63
2023-03-02T06:12:39.248Z,3.93
2023-03-02T06:15:08.485Z,3.90
2023-03-02T06:17:37.909Z,3.80
2023-03-02T06:20:10.863Z,3.30
2023-03-02T06:22:41.230Z,3.43
2023-03-02T06:25:10.322Z,3.50
2023-03-02T06:27:38.815Z,3.40
2023-03-02T06:30:07.805Z,4.87
2023-03-02T06:32:37.258Z,3.60
2023-03-02T06:35:06.521Z,4.00
2023-03-02T06:37:34.663Z,3.73
2023-03-02T06:40:02.963Z,3.73
2023-03-02T06:42:31.028Z,3.20
2023-03-02T06:44:59.038Z,3.50
2023-03-02T06:47:27.159Z,3.47
2023-03-02T06:49:56.652Z,3.37
2023-03-02T06:52:24.693Z,3.70
2023-03-02T06:54:52.698Z,3.80
2023-03-02T06:57:20.770Z,4.20
2023-03-02T06:59:48.819Z,4.87
2023-03-02T07:02:16.858Z,5.70
2023-03-02T07:04:44.884Z,4.40
2023-03-02T07:07:14.319Z,3.97
2023-03-02T07:09:42.408Z,4.47
2023-03-02T07:12:10.447Z,4.00
2023-03-02T07:14:38.624Z,4.00
2023-03-02T07:17:06.737Z,5.17
2023-03-02T07:19:34.744Z,3.57
2023-03-02T07:22:02.813Z,6.40
2023-03-02T07:24:32.241Z,3.80
2023-03-02T07:27:00.244Z,5.30
2023-03-02T07:29:28.458Z,3.80
2023-03-02T07:31:57.399Z,3.80
2023-03-02T07:34:25.759Z,3.60
2023-03-02T07:36:57.757Z,4.60
2023-03-02T07:39:25.784Z,3.97
2023-03-02T07:41:58.294Z,3.83
2023-03-02T07:44:26.349Z,5.90
2023-03-02T07:46:54.639Z,5.57
2023-03-02T07:49:22.795Z,3.80
2023-03-02T07:51:50.778Z,4.30
2023-03-02T07:54:18.844Z,4.77
2023-03-02T07:56:46.856Z,5.23
2023-03-02T07:59:16.289Z,5.20
2023-03-02T08:01:44.361Z,5.37
2023-03-02T08:04:12.429Z,7.30
2023-03-02T08:06:42.438Z,4.27
2023-03-02T08:09:10.676Z,3.47
2023-03-02T08:11:38.749Z,4.07
2023-03-02T08:14:06.799Z,4.63
2023-03-02T08:16:36.204Z,3.43
2023-03-02T08:19:04.217Z,4.40
2023-03-02T08:21:33.857Z,4.80
2023-03-02T08:24:03.236Z,3.70
2023-03-02T08:26:31.335Z,5.40
2023-03-02T08:29:03.121Z,4.47
2023-03-02T08:31:31.585Z,3.23
2023-03-02T08:34:01.191Z,3.83
2023-03-02T08:36:29.252Z,4.80
2023-03-02T08:38:57.300Z,3.83
2023-03-02T08:41:26.167Z,3.20
2023-03-02T08:43:54.492Z,4.33
2023-03-02T08:46:22.682Z,4.23
2023-03-02T08:48:51.275Z,4.03
2023-03-02T08:51:21.910Z,5.87
2023-03-02T08:53:51.321Z,3.73
2023-03-02T08:56:20.184Z,5.23
2023-03-02T08:58:48.340Z,3.73
2023-03-02T09:01:17.679Z,5.67
2023-03-02T09:03:45.869Z,5.83
2023-03-02T09:06:14.042Z,5.00
2023-03-02T09:08:43.663Z,3.50
2023-03-02T09:11:11.770Z,3.63
2023-03-02T09:13:39.841Z,3.80
2023-03-02T09:16:08.581Z,3.77
2023-03-02T09:18:36.695Z,3.20
2023-03-02T09:21:05.119Z,4.10
2023-03-02T09:23:33.412Z,4.43
2023-03-02T09:26:02.842Z,4.77
2023-03-02T09:28:33.203Z,3.20
2023-03-02T09:31:02.731Z,3.63
2023-03-02T09:33:31.048Z,4.13
2023-03-02T09:35:59.110Z,7.83
2023-03-02T09:38:27.139Z,3.90
2023-03-02T09:41:29.272Z,4.17
2023-03-02T09:44:01.862Z,3.83
2023-03-02T09:46:31.441Z,4.77
2023-03-02T09:49:06.753Z,6.77
2023-03-02T09:51:37.234Z,4.03
2023-03-02T09:54:11.278Z,5.83
2023-03-02T09:56:41.231Z,3.43
2023-03-02T09:59:21.899Z,3.53
2023-03-02T10:01:52.436Z,5.17
2023-03-02T10:04:23.919Z,3.83
2023-03-02T10:06:55.366Z,3.80
2023-03-02T10:09:23.390Z,3.60
2023-03-02T10:12:18.448Z,3.93
2023-03-02T10:14:50.513Z,4.40
2023-03-02T10:17:36.650Z,3.70
2023-03-02T10:20:06.229Z,7.73
2023-03-02T10:22:35.510Z,4.37
2023-03-02T10:25:10.196Z,3.33
2023-03-02T10:27:39.538Z,5.80
2023-03-02T10:30:12.546Z,4.17
2023-03-02T10:32:44.463Z,4.60
2023-03-02T10:35:14.869Z,5.47
2023-03-02T10:37:43.010Z,4.87
2023-03-02T10:40:15.029Z,4.40
2023-03-02T10:42:43.081Z,3.87
2023-03-02T10:45:20.191Z,4.00
2023-03-02T10:47:48.297Z,4.40
2023-03-02T10:50:22.663Z,3.13
2023-03-02T10:52:59.516Z,7.50
2023-03-02T10:55:28.707Z,3.57
2023-03-02T10:58:01.888Z,3.40
2023-03-02T11:00:31.891Z,4.00
2023-03-02T11:03:01.147Z,4.20
2023-03-02T11:05:32.044Z,4.10
2023-03-02T11:08:04.014Z,3.67
2023-03-02T11:10:34.310Z,3.77
2023-03-02T11:13:03.050Z,4.40
2023-03-02T11:15:37.182Z,3.03
2023-03-02T11:18:09.477Z,3.40
2023-03-02T11:20:38.973Z,4.23
2023-03-02T11:23:16.272Z,3.27
2023-03-02T11:25:48.402Z,3.63
2023-03-02T11:28:30.949Z,3.37
2023-03-02T11:31:00.400Z,3.00
2023-03-02T11:33:31.007Z,3.93
2023-03-02T11:36:00.492Z,3.23
2023-03-02T11:38:29.944Z,3.50
2023-03-02T11:40:59.600Z,3.07
2023-03-02T11:43:27.714Z,4.03
2023-03-02T11:45:58.613Z,3.30
2023-03-02T11:48:29.513Z,3.40
2023-03-02T11:50:58.628Z,3.20
2023-03-02T11:53:30.211Z,2.87
2023-03-02T11:56:03.262Z,3.60
2023-03-02T11:58:31.321Z,3.47
2023-03-02T12:00:59.354Z,3.43
2023-03-02T12:03:45.665Z,3.80
2023-03-02T12:06:35.664Z,3.30
2023-03-02T12:09:30.940Z,2.77
2023-03-02T12:12:21.935Z,3.67
2023-03-02T12:14:49.969Z,3.77
2023-03-02T12:17:23.267Z,3.10
2023-03-02T12:19:53.839Z,2.60
2023-03-02T12:22:29.055Z,3.43
2023-03-02T12:25:05.943Z,3.27
2023-03-02T12:27:38.367Z,4.47
2023-03-02T12:30:26.801Z,2.90
2023-03-02T12:33:17.954Z,3.67
2023-03-02T12:35:47.565Z,3.20
2023-03-02T12:38:29.207Z,3.70
2023-03-02T12:41:18.965Z,3.07
2023-03-02T12:43:48.995Z,3.13
2023-03-02T12:46:32.364Z,3.50
2023-03-02T12:49:21.398Z,3.00
2023-03-02T12:51:55.123Z,3.50
2023-03-02T12:54:26.242Z,2.80
2023-03-02T12:57:06.257Z,3.40
2023-03-02T12:59:34.314Z,3.93
2023-03-02T13:02:15.883Z,2.67
2023-03-02T13:04:43.934Z,2.87
2023-03-02T13:07:20.210Z,2.27
2023-03-02T13:09:56.251Z,3.83
2023-03-02T13:12:27.042Z,3.90
2023-03-02T13:14:58.777Z,6.00
2023-03-02T13:17:29.531Z,3.10
2023-03-02T13:19:57.626Z,2.97
2023-03-02T13:22:27.294Z,3.00
2023-03-02T13:24:59.086Z,2.67
2023-03-02T13:27:27.838Z,2.47
2023-03-02T13:29:56.664Z,2.43
2023-03-02T13:32:25.833Z,2.77
2023-03-02T13:34:54.865Z,2.17
2023-03-02T13:37:28.244Z,3.30
2023-03-02T13:39:56.751Z,2.33
2023-03-02T13:42:29.862Z,4.50
2023-03-02T13:44:57.919Z,2.30
2023-03-02T13:47:26.064Z,2.80
2023-03-02T13:49:54.109Z,2.80
2023-03-02T13:52:27.526Z,2.43
2023-03-02T13:54:55.536Z,2.83
2023-03-02T13:57:26.037Z,2.40
2023-03-02T13:59:54.063Z,6.10
2023-03-02T14:02:25.059Z,2.33
2023-03-02T14:04:58.449Z,3.20
2023-03-02T14:07:27.937Z,2.63
2023-03-02T14:09:57.554Z,2.33
2023-03-02T14:12:27.234Z,3.53
2023-03-02T14:14:55.652Z,3.00
2023-03-02T14:17:24.859Z,4.80
2023-03-02T14:19:53.707Z,4.00
2023-03-02T14:22:21.779Z,2.50
2023-03-02T14:24:51.184Z,3.13
2023-03-02T14:27:19.185Z,3.33
2023-03-02T14:29:47.502Z,3.10
2023-03-02T14:32:16.400Z,2.57
2023-03-02T14:34:44.415Z,2.37
2023-03-02T14:37:13.794Z,2.63
2023-03-02T14:39:42.565Z,3.53
2023-03-02T14:42:14.013Z,2.60
2023-03-02T14:44:42.119Z,5.07
2023-03-02T14:47:10.471Z,3.53
2023-03-02T14:49:38.494Z,3.00
2023-03-02T14:52:07.532Z,2.37
2023-03-02T14:54:39.366Z,2.80
2023-03-02T14:57:09.454Z,2.73
2023-03-02T14:59:38.852Z,2.73
2023-03-02T15:02:19.170Z,2.70
2023-03-02T15:04:55.994Z,2.80
2023-03-02T15:07:24.539Z,2.90
2023-03-02T15:09:52.564Z,4.27
2023-03-02T15:12:20.647Z,3.73
2023-03-02T15:14:50.098Z,2.97
2023-03-02T15:17:18.194Z,2.97
2023-03-02T15:19:46.236Z,3.03
2023-03-02T15:22:14.352Z,4.80
2023-03-02T15:24:42.368Z,3.30
2023-03-02T15:27:10.400Z,3.13
2023-03-02T15:29:38.494Z,2.57
2023-03-02T15:32:08.062Z,3.23
2023-03-02T15:34:36.508Z,2.90
2023-03-02T15:37:04.600Z,2.70
2023-03-02T15:39:33.383Z,2.63
2023-03-02T15:42:01.641Z,3.10
2023-03-02T15:44:29.754Z,3.30
2023-03-02T15:46:59.061Z,3.30
2023-03-02T15:49:29.446Z,3.40
2023-03-02T15:51:58.467Z,4.80
2023-03-02T15:54:26.666Z,3.50
2023-03-02T15:56:54.765Z,3.27
2023-03-02T15:59:23.845Z,5.43
2023-03-02T16:01:51.906Z,3.50
2023-03-02T16:04:20.023Z,3.77
2023-03-02T16:06:49.443Z,3.50
2023-03-02T16:09:17.898Z,4.00
2023-03-02T16:11:45.939Z,4.00
2023-03-02T16:14:15.650Z,3.60
2023-03-02T16:16:43.942Z,3.77
2023-03-02T16:19:12.434Z,3.07
2023-03-02T16:21:40.491Z,3.57
2023-03-02T16:24:10.242Z,3.70
2023-03-02T16:26:38.756Z,3.83
2023-03-02T16:29:08.023Z,4.33
2023-03-02T16:31:39.615Z,3.90
2023-03-02T16:34:08.905Z,4.80
2023-03-02T16:36:37.433Z,4.53
2023-03-02T16:39:11.456Z,7.43
2023-03-02T16:41:40.004Z,4.63
2023-03-02T16:44:08.060Z,4.53
2023-03-02T16:46:37.337Z,4.73
2023-03-02T16:49:05.489Z,3.77
2023-03-02T16:51:33.523Z,3.70
2023-03-02T16:54:01.591Z,3.63
2023-03-02T16:56:31.138Z,3.70
2023-03-02T16:59:00.206Z,3.40
2023-03-02T17:01:33.573Z,4.50
2023-03-02T17:04:03.210Z,4.77
2023-03-02T17:06:32.307Z,3.90
2023-03-02T17:09:00.323Z,3.30
2023-03-02T17:11:28.368Z,3.30
2023-03-02T17:13:57.810Z,8.47
2023-03-02T17:16:26.505Z,3.63
2023-03-02T17:18:54.546Z,3.90
2023-03-02T17:21:24.236Z,3.50
2023-03-02T17:23:52.259Z,3.57
2023-03-02T17:26:20.291Z,5.93
2023-03-02T17:28:48.333Z,4.33
2023-03-02T17:31:17.789Z,3.90
2023-03-02T17:33:45.838Z,4.13
2023-03-02T17:36:15.351Z,4.57
2023-03-02T17:38:43.425Z,4.53
2023-03-02T17:41:11.663Z,5.63
2023-03-02T17:43:41.068Z,4.90
2023-03-02T17:46:13.933Z,4.40
2023-03-02T17:48:43.462Z,4.00
2023-03-02T17:51:14.860Z,5.07
2023-03-02T17:53:42.972Z,4.60
2023-03-02T17:56:11.128Z,5.00
2023-03-02T17:58:45.653Z,4.27
2023-03-02T18:01:15.599Z,4.10
2023-03-02T18:03:46.044Z,3.70
2023-03-02T18:06:14.569Z,4.20
2023-03-02T18:08:42.600Z,5.40
2023-03-02T18:11:10.670Z,5.80
2023-03-02T18:13:38.744Z,5.90
2023-03-02T18:16:07.494Z,4.87
2023-03-02T18:18:35.604Z,4.30
2023-03-02T18:21:05.229Z,4.53
2023-03-02T18:23:33.309Z,6.53
2023-03-02T18:26:01.335Z,5.50
2023-03-02T18:28:29.362Z,6.10
2023-03-02T18:30:57.512Z,6.40
2023-03-02T18:33:25.599Z,6.50
2023-03-02T18:35:53.629Z,6.30
2023-03-02T18:38:23.049Z,7.03
2023-03-02T18:40:51.095Z,4.90
2023-03-02T18:43:19.142Z,5.37
2023-03-02T18:45:47.233Z,4.93
2023-03-02T18:48:15.246Z,5.10
2023-03-02T18:50:43.787Z,7.60
2023-03-02T18:53:12.943Z,5.17
2023-03-02T18:55:47.125Z,6.50
2023-03-02T18:58:20.576Z,7.70
2023-03-02T19:00:48.708Z,5.63
2023-03-02T19:03:17.031Z,5.70
2023-03-02T19:05:45.889Z,5.93
2023-03-02T19:08:13.961Z,4.30
2023-03-02T19:10:42.544Z,5.10
2023-03-02T19:13:17.051Z,4.93
2023-03-02T19:15:45.164Z,5.90
2023-03-02T19:18:14.198Z,5.27
2023-03-02T19:20:42.302Z,6.60
2023-03-02T19:23:15.702Z,6.50
2023-03-02T19:25:43.780Z,6.33
2023-03-02T19:28:11.842Z,6.90
2023-03-02T19:30:41.342Z,5.43
2023-03-02T19:33:10.023Z,5.57
2023-03-02T19:35:38.648Z,5.93
2023-03-02T19:38:07.012Z,5.43
2023-03-02T19:40:35.555Z,7.20
2023-03-02T19:43:03.868Z,5.57
2023-03-02T19:45:34.913Z,7.13
2023-03-02T19:48:05.775Z,6.97
2023-03-02T19:50:33.925Z,5.80
2023-03-02T19:53:01.960Z,6.57
2023-03-02T19:55:30.025Z,5.13
2023-03-02T19:58:00.180Z,7.07
2023-03-02T20:00:28.823Z,7.27
2023-03-02T20:02:57.600Z,7.07
2023-03-02T20:05:27.663Z,7.30
2023-03-02T20:07:55.894Z,7.07
2023-03-02T20:10:28.758Z,7.13
2023-03-02T20:12:56.787Z,5.73
2023-03-02T20:15:24.868Z,7.60
2023-03-02T20:17:52.899Z,7.33
2023-03-02T20:20:21.018Z,8.03
2023-03-02T20:22:50.397Z,8.63
2023-03-02T20:25:19.833Z,6.93
2023-03-02T20:27:57.988Z,11.80
2023-03-02T20:30:29.007Z,9.63
2023-03-02T20:32:57.529Z,7.00
2023-03-02T20:35:25.863Z,9.23
2023-03-02T20:37:55.810Z,9.03
2023-03-02T20:40:23.897Z,8.43
2023-03-02T20:42:51.923Z,10.00
2023-03-02T20:45:20.163Z,7.20
2023-03-02T20:47:48.255Z,8.10
2023-03-02T20:50:18.006Z,8.80
2023-03-02T20:52:46.175Z,10.10
2023-03-02T20:55:15.652Z,8.87
2023-03-02T20:57:43.693Z,10.70
2023-03-02T21:00:16.160Z,7.30
2023-03-02T21:02:47.383Z,7.80
2023-03-02T21:05:15.790Z,8.73
2023-03-02T21:07:44.265Z,9.40
2023-03-02T21:10:16.546Z,11.10
2023-03-02T21:12:45.785Z,8.33
2023-03-02T21:15:14.100Z,8.57
2023-03-02T21:17:42.136Z,8.83
2023-03-02T21:20:12.506Z,10.63
2023-03-02T21:22:40.595Z,8.40
2023-03-02T21:25:09.345Z,8.47
2023-03-02T21:27:39.428Z,9.90
2023-03-02T21:30:10.191Z,10.53
2023-03-02T21:32:38.215Z,12.63
2023-03-02T21:35:06.993Z,12.80
2023-03-02T21:37:35.028Z,13.30
2023-03-02T21:40:03.142Z,11.50
2023-03-02T21:42:31.178Z,13.40
2023-03-02T21:45:00.589Z,12.43
2023-03-02T21:47:28.643Z,14.70
2023-03-02T21:49:56.707Z,15.43
2023-03-02T21:52:27.317Z,16.10
2023-03-02T21:54:55.450Z,15.07
2023-03-02T21:57:23.534Z,16.07
2023-03-02T21:59:53.594Z,15.50
2023-03-02T22:02:23.131Z,16.60
2023-03-02T22:04:51.162Z,14.47
2023-03-02T22:07:19.204Z,18.47
2023-03-02T22:09:47.253Z,17.73
2023-03-02T22:12:15.359Z,16.37
2023-03-02T22:14:45.782Z,15.90
2023-03-02T22:17:17.078Z,17.30
2023-03-02T22:19:46.484Z,18.40
2023-03-02T22:22:17.874Z,20.57
2023-03-02T22:24:47.542Z,20.20
2023-03-02T22:27:22.524Z,20.50
2023-03-02T22:29:50.734Z,17.00
2023-03-02T22:32:20.019Z,17.90
2023-03-02T22:34:54.594Z,20.17
2023-03-02T22:37:23.718Z,21.03
2023-03-02T22:39:54.243Z,19.80
2023-03-02T22:42:23.098Z,18.10
2023-03-02T22:44:53.736Z,20.30
2023-03-02T22:47:21.812Z,21.67
2023-03-02T22:49:59.187Z,23.67
2023-03-02T22:52:39.254Z,25.23
2023-03-02T22:55:32.305Z,25.33
2023-03-02T22:58:00.331Z,24.13
2023-03-02T23:00:35.033Z,21.17
2023-03-02T23:03:32.819Z,21.90
2023-03-02T23:06:02.267Z,24.43
2023-03-02T23:08:30.605Z,24.30
2023-03-02T23:10:59.350Z,28.53
2023-03-02T23:13:30.845Z,23.90
2023-03-02T23:16:03.906Z,25.73
2023-03-02T23:18:31.929Z,28.47
2023-03-02T23:21:01.366Z,24.70
2023-03-02T23:23:29.384Z,24.33
2023-03-02T23:25:57.408Z,27.20
2023-03-02T23:28:25.495Z,27.83
2023-03-02T23:30:53.539Z,30.13
2023-03-02T23:33:21.591Z,30.77
2023-03-02T23:35:49.678Z,25.20
2023-03-02T23:38:19.103Z,29.23
2023-03-02T23:40:47.118Z,29.50
2023-03-02T23:43:15.158Z,26.17
2023-03-02T23:45:43.222Z,26.47
2023-03-02T23:48:11.265Z,29.97
2023-03-02T23:50:39.485Z,28.03
2023-03-02T23:53:07.525Z,32.03
2023-03-02T23:55:37.025Z,30.37
2023-03-02T23:58:05.040Z,31.10
